Terminal Aerodrome Forecast
Issued by NWS

Home | Current Version | Previous Version | Text Only | Print | Product List | Glossary On
Versions: 1 2 3 4 5 6 7 8 9 10 11 12 13 14 15 16 17 18 19 20 21 22 23 24 25 26 27 28 29 30 31 32 33 34
000
FTUS43 KILX 221058 AAH
TAFBMI
TAF AMD
KBMI 221058Z 2211/2306 20006KT 1/4SM FG OVC010
     FM221500 21007KT P6SM FEW008
     FM221900 21010KT P6SM FEW250=

USA.gov is the U.S. government's official web portal to all federal, state and local government web resources and services.